sensor_id;sensor_type;location;lat;lon;timestamp;temperature;humidity
68387;DHT22;55338;43.062;25.624;2023-03-01T00:01:34;7.40;99.90
68387;DHT22;55338;43.062;25.624;2023-03-01T00:04:00;7.40;99.90
68387;DHT22;55338;43.062;25.624;2023-03-01T00:06:27;7.30;99.90
68387;DHT22;55338;43.062;25.624;2023-03-01T00:08:53;7.40;99.90
68387;DHT22;55338;43.062;25.624;2023-03-01T00:11:25;7.40;99.90
68387;DHT22;55338;43.062;25.624;2023-03-01T00:13:53;7.40;99.90
68387;DHT22;55338;43.062;25.624;2023-03-01T00:16:32;7.40;99.90
68387;DHT22;55338;43.062;25.624;2023-03-01T00:18:58;7.30;99.90
68387;DHT22;55338;43.062;25.624;2023-03-01T00:21:25;7.30;99.90
68387;DHT22;55338;43.062;25.624;2023-03-01T00:23:52;7.30;99.90
68387;DHT22;55338;43.062;25.624;2023-03-01T00:26:18;7.40;99.90
68387;DHT22;55338;43.062;25.624;2023-03-01T00:28:45;7.30;99.90
68387;DHT22;55338;43.062;25.624;2023-03-01T00:31:13;7.30;99.90
68387;DHT22;55338;43.062;25.624;2023-03-01T00:33:40;7.30;99.90
68387;DHT22;55338;43.062;25.624;2023-03-01T00:36:06;7.20;99.90
68387;DHT22;55338;43.062;25.624;2023-03-01T00:38:39;7.20;99.90
68387;DHT22;55338;43.062;25.624;2023-03-01T00:41:09;7.20;99.90
68387;DHT22;55338;43.062;25.624;2023-03-01T00:43:36;7.20;99.90
68387;DHT22;55338;43.062;25.624;2023-03-01T00:46:03;7.20;99.90
68387;DHT22;55338;43.062;25.624;2023-03-01T00:48:29;7.20;99.90
68387;DHT22;55338;43.062;25.624;2023-03-01T00:50:55;7.10;99.90
68387;DHT22;55338;43.062;25.624;2023-03-01T00:53:24;7.20;99.90
68387;DHT22;55338;43.062;25.624;2023-03-01T00:55:50;7.20;99.90
68387;DHT22;55338;43.062;25.624;2023-03-01T00:58:16;7.20;99.90
68387;DHT22;55338;43.062;25.624;2023-03-01T01:00:41;7.20;99.90
68387;DHT22;55338;43.062;25.624;2023-03-01T01:03:07;7.10;99.90
68387;DHT22;55338;43.062;25.624;2023-03-01T01:05:34;7.20;99.90
68387;DHT22;55338;43.062;25.624;2023-03-01T01:08:00;7.20;99.90
68387;DHT22;55338;43.062;25.624;2023-03-01T01:10:26;7.10;99.90
68387;DHT22;55338;43.062;25.624;2023-03-01T01:12:52;7.20;99.90
68387;DHT22;55338;43.062;25.624;2023-03-01T01:15:17;7.20;99.90
68387;DHT22;55338;43.062;25.624;2023-03-01T01:17:43;7.20;99.90
68387;DHT22;55338;43.062;25.624;2023-03-01T01:20:09;7.20;99.90
68387;DHT22;55338;43.062;25.624;2023-03-01T01:22:35;7.20;99.90
68387;DHT22;55338;43.062;25.624;2023-03-01T01:25:01;7.10;99.90
68387;DHT22;55338;43.062;25.624;2023-03-01T01:27:27;7.10;99.90
68387;DHT22;55338;43.062;25.624;2023-03-01T01:29:53;7.10;99.90
68387;DHT22;55338;43.062;25.624;2023-03-01T01:32:18;7.10;99.90
68387;DHT22;55338;43.062;25.624;2023-03-01T01:34:44;7.00;99.90
68387;DHT22;55338;43.062;25.624;2023-03-01T01:37:10;7.00;99.90
68387;DHT22;55338;43.062;25.624;2023-03-01T01:39:36;7.00;99.90
68387;DHT22;55338;43.062;25.624;2023-03-01T01:42:02;7.00;99.90
68387;DHT22;55338;43.062;25.624;2023-03-01T01:44:28;7.00;99.90
68387;DHT22;55338;43.062;25.624;2023-03-01T01:52:00;7.00;99.90
68387;DHT22;55338;43.062;25.624;2023-03-01T01:55:03;7.00;99.90
68387;DHT22;55338;43.062;25.624;2023-03-01T01:57:55;7.00;99.90
68387;DHT22;55338;43.062;25.624;2023-03-01T02:00:26;7.00;99.90
68387;DHT22;55338;43.062;25.624;2023-03-01T02:02:56;7.00;99.90
68387;DHT22;55338;43.062;25.624;2023-03-01T02:07:52;6.90;99.90
68387;DHT22;55338;43.062;25.624;2023-03-01T02:10:19;6.90;99.90
68387;DHT22;55338;43.062;25.624;2023-03-01T02:12:45;6.90;99.90
68387;DHT22;55338;43.062;25.624;2023-03-01T02:15:11;6.90;99.90
68387;DHT22;55338;43.062;25.624;2023-03-01T02:17:37;6.90;99.90
68387;DHT22;55338;43.062;25.624;2023-03-01T02:20:14;6.90;99.90
68387;DHT22;55338;43.062;25.624;2023-03-01T02:22:43;6.90;99.90
68387;DHT22;55338;43.062;25.624;2023-03-01T02:30:13;6.90;99.90
68387;DHT22;55338;43.062;25.624;2023-03-01T02:32:42;6.90;99.90
68387;DHT22;55338;43.062;25.624;2023-03-01T02:35:12;6.80;99.90
68387;DHT22;55338;43.062;25.624;2023-03-01T02:37:39;6.80;99.90
68387;DHT22;55338;43.062;25.624;2023-03-01T02:42:51;6.90;99.90
68387;DHT22;55338;43.062;25.624;2023-03-01T02:45:17;6.90;99.90
68387;DHT22;55338;43.062;25.624;2023-03-01T02:47:43;6.90;99.90
68387;DHT22;55338;43.062;25.624;2023-03-01T02:55:31;7.00;99.90
68387;DHT22;55338;43.062;25.624;2023-03-01T02:57:57;6.90;99.90
68387;DHT22;55338;43.062;25.624;2023-03-01T03:00:31;6.90;99.90
68387;DHT22;55338;43.062;25.624;2023-03-01T03:02:58;6.90;99.90
68387;DHT22;55338;43.062;25.624;2023-03-01T03:05:27;6.90;99.90
68387;DHT22;55338;43.062;25.624;2023-03-01T03:07:54;6.90;99.90
68387;DHT22;55338;43.062;25.624;2023-03-01T03:12:50;6.90;99.90
68387;DHT22;55338;43.062;25.624;2023-03-01T03:15:17;6.90;99.90
68387;DHT22;55338;43.062;25.624;2023-03-01T03:17:43;6.90;99.90
68387;DHT22;55338;43.062;25.624;2023-03-01T03:20:11;6.90;99.90
68387;DHT22;55338;43.062;25.624;2023-03-01T03:22:40;7.00;99.90
68387;DHT22;55338;43.062;25.624;2023-03-01T03:25:09;6.90;99.90
68387;DHT22;55338;43.062;25.624;2023-03-01T03:27:41;6.90;99.90
68387;DHT22;55338;43.062;25.624;2023-03-01T03:30:10;6.90;99.90
68387;DHT22;55338;43.062;25.624;2023-03-01T03:32:41;6.90;99.90
68387;DHT22;55338;43.062;25.624;2023-03-01T03:35:09;6.80;99.90
68387;DHT22;55338;43.062;25.624;2023-03-01T03:37:40;6.80;99.90
68387;DHT22;55338;43.062;25.624;2023-03-01T03:40:25;6.80;99.90
68387;DHT22;55338;43.062;25.624;2023-03-01T03:42:52;6.80;99.90
68387;DHT22;55338;43.062;25.624;2023-03-01T03:45:18;6.80;99.90
68387;DHT22;55338;43.062;25.624;2023-03-01T03:47:44;6.80;99.90
68387;DHT22;55338;43.062;25.624;2023-03-01T03:50:11;6.80;99.90
68387;DHT22;55338;43.062;25.624;2023-03-01T03:52:37;6.80;99.90
68387;DHT22;55338;43.062;25.624;2023-03-01T03:55:04;6.80;99.90
68387;DHT22;55338;43.062;25.624;2023-03-01T03:57:35;6.70;99.90
68387;DHT22;55338;43.062;25.624;2023-03-01T04:00:01;6.80;99.90
68387;DHT22;55338;43.062;25.624;2023-03-01T04:02:30;6.80;99.90
68387;DHT22;55338;43.062;25.624;2023-03-01T04:04:55;6.80;99.90
68387;DHT22;55338;43.062;25.624;2023-03-01T04:07:21;6.80;99.90
68387;DHT22;55338;43.062;25.624;2023-03-01T04:09:47;6.80;99.90
68387;DHT22;55338;43.062;25.624;2023-03-01T04:12:13;6.80;99.90
68387;DHT22;55338;43.062;25.624;2023-03-01T04:14:39;6.80;99.90
68387;DHT22;55338;43.062;25.624;2023-03-01T04:17:05;6.80;99.90
68387;DHT22;55338;43.062;25.624;2023-03-01T04:19:31;6.80;99.90
68387;DHT22;55338;43.062;25.624;2023-03-01T04:22:04;6.80;99.90
68387;DHT22;55338;43.062;25.624;2023-03-01T04:24:37;6.80;99.90
68387;DHT22;55338;43.062;25.624;2023-03-01T04:27:03;6.90;99.90
68387;DHT22;55338;43.062;25.624;2023-03-01T04:29:29;6.90;99.90
68387;DHT22;55338;43.062;25.624;2023-03-01T04:31:55;6.80;99.90
68387;DHT22;55338;43.062;25.624;2023-03-01T04:34:20;6.90;99.90
68387;DHT22;55338;43.062;25.624;2023-03-01T04:36:47;6.90;99.90
68387;DHT22;55338;43.062;25.624;2023-03-01T04:39:13;6.90;99.90
68387;DHT22;55338;43.062;25.624;2023-03-01T04:41:40;6.90;99.90
68387;DHT22;55338;43.062;25.624;2023-03-01T04:44:07;6.90;99.90
68387;DHT22;55338;43.062;25.624;2023-03-01T04:46:35;6.90;99.90
68387;DHT22;55338;43.062;25.624;2023-03-01T04:49:02;6.90;99.90
68387;DHT22;55338;43.062;25.624;2023-03-01T04:51:28;6.90;99.90
68387;DHT22;55338;43.062;25.624;2023-03-01T04:53:54;7.00;99.90
68387;DHT22;55338;43.062;25.624;2023-03-01T04:56:20;7.00;99.90
68387;DHT22;55338;43.062;25.624;2023-03-01T04:58:48;7.00;99.90
68387;DHT22;55338;43.062;25.624;2023-03-01T05:01:18;7.00;99.90
68387;DHT22;55338;43.062;25.624;2023-03-01T05:03:47;7.00;99.90
68387;DHT22;55338;43.062;25.624;2023-03-01T05:06:14;7.00;99.90
68387;DHT22;55338;43.062;25.624;2023-03-01T05:08:42;7.00;99.90
68387;DHT22;55338;43.062;25.624;2023-03-01T05:11:08;7.00;99.90
68387;DHT22;55338;43.062;25.624;2023-03-01T05:13:35;7.00;99.90
68387;DHT22;55338;43.062;25.624;2023-03-01T05:16:02;7.00;99.90
68387;DHT22;55338;43.062;25.624;2023-03-01T05:18:30;7.00;99.90
68387;DHT22;55338;43.062;25.624;2023-03-01T05:21:08;7.00;99.90
68387;DHT22;55338;43.062;25.624;2023-03-01T05:23:35;7.00;99.90
68387;DHT22;55338;43.062;25.624;2023-03-01T05:26:03;7.00;99.90
68387;DHT22;55338;43.062;25.624;2023-03-01T05:28:30;7.00;99.90
68387;DHT22;55338;43.062;25.624;2023-03-01T05:30:56;7.00;99.90
68387;DHT22;55338;43.062;25.624;2023-03-01T05:33:23;7.00;99.90
68387;DHT22;55338;43.062;25.624;2023-03-01T05:35:50;7.00;99.90
68387;DHT22;55338;43.062;25.624;2023-03-01T05:38:17;7.00;99.90
68387;DHT22;55338;43.062;25.624;2023-03-01T05:40:46;7.00;99.90
68387;DHT22;55338;43.062;25.624;2023-03-01T05:43:14;7.00;99.90
68387;DHT22;55338;43.062;25.624;2023-03-01T05:45:40;7.00;99.90
68387;DHT22;55338;43.062;25.624;2023-03-01T05:48:07;7.00;99.90
68387;DHT22;55338;43.062;25.624;2023-03-01T05:50:36;7.00;99.90
68387;DHT22;55338;43.062;25.624;2023-03-01T05:53:17;7.00;99.90
68387;DHT22;55338;43.062;25.624;2023-03-01T05:55:44;7.00;99.90
68387;DHT22;55338;43.062;25.624;2023-03-01T05:58:14;7.00;99.90
68387;DHT22;55338;43.062;25.624;2023-03-01T06:00:42;7.00;99.90
68387;DHT22;55338;43.062;25.624;2023-03-01T06:03:10;7.00;99.90
68387;DHT22;55338;43.062;25.624;2023-03-01T06:05:36;7.00;99.90
68387;DHT22;55338;43.062;25.624;2023-03-01T06:08:06;7.00;99.90
68387;DHT22;55338;43.062;25.624;2023-03-01T06:10:32;6.90;99.90
68387;DHT22;55338;43.062;25.624;2023-03-01T06:12:58;6.90;99.90
68387;DHT22;55338;43.062;25.624;2023-03-01T06:15:24;7.00;99.90
68387;DHT22;55338;43.062;25.624;2023-03-01T06:17:51;7.00;99.90
68387;DHT22;55338;43.062;25.624;2023-03-01T06:20:21;7.00;99.90
68387;DHT22;55338;43.062;25.624;2023-03-01T06:22:53;7.00;99.90
68387;DHT22;55338;43.062;25.624;2023-03-01T06:25:21;7.10;99.90
68387;DHT22;55338;43.062;25.624;2023-03-01T06:27:48;7.10;99.90
68387;DHT22;55338;43.062;25.624;2023-03-01T06:30:20;7.10;99.90
68387;DHT22;55338;43.062;25.624;2023-03-01T06:32:46;7.10;99.90
68387;DHT22;55338;43.062;25.624;2023-03-01T06:35:14;7.20;99.90
68387;DHT22;55338;43.062;25.624;2023-03-01T06:37:43;7.20;99.90
68387;DHT22;55338;43.062;25.624;2023-03-01T06:40:10;7.20;99.90
68387;DHT22;55338;43.062;25.624;2023-03-01T06:42:41;7.20;99.90
68387;DHT22;55338;43.062;25.624;2023-03-01T06:45:08;7.20;99.90
68387;DHT22;55338;43.062;25.624;2023-03-01T06:47:34;7.30;99.90
68387;DHT22;55338;43.062;25.624;2023-03-01T06:50:02;7.30;99.90
68387;DHT22;55338;43.062;25.624;2023-03-01T06:52:34;7.20;99.90
68387;DHT22;55338;43.062;25.624;2023-03-01T06:55:00;7.30;99.90
68387;DHT22;55338;43.062;25.624;2023-03-01T06:57:31;7.30;99.90
68387;DHT22;55338;43.062;25.624;2023-03-01T06:59:57;7.20;99.90
68387;DHT22;55338;43.062;25.624;2023-03-01T07:02:24;7.30;99.90
68387;DHT22;55338;43.062;25.624;2023-03-01T07:04:51;7.20;99.90
68387;DHT22;55338;43.062;25.624;2023-03-01T07:07:17;7.30;99.90
68387;DHT22;55338;43.062;25.624;2023-03-01T07:09:46;7.30;99.90
68387;DHT22;55338;43.062;25.624;2023-03-01T07:12:14;7.40;99.90
68387;DHT22;55338;43.062;25.624;2023-03-01T07:14:39;7.30;99.90
68387;DHT22;55338;43.062;25.624;2023-03-01T07:17:06;7.30;99.90
68387;DHT22;55338;43.062;25.624;2023-03-01T07:19:31;7.30;99.90
68387;DHT22;55338;43.062;25.624;2023-03-01T07:21:57;7.30;99.90
68387;DHT22;55338;43.062;25.624;2023-03-01T07:24:23;7.40;99.90
68387;DHT22;55338;43.062;25.624;2023-03-01T07:26:50;7.40;99.90
68387;DHT22;55338;43.062;25.624;2023-03-01T07:29:17;7.40;99.90
68387;DHT22;55338;43.062;25.624;2023-03-01T07:31:43;7.40;99.90
68387;DHT22;55338;43.062;25.624;2023-03-01T07:34:09;7.40;99.90
68387;DHT22;55338;43.062;25.624;2023-03-01T07:36:36;7.50;99.90
68387;DHT22;55338;43.062;25.624;2023-03-01T07:42:57;7.50;99.90
68387;DHT22;55338;43.062;25.624;2023-03-01T07:45:24;7.50;99.90
68387;DHT22;55338;43.062;25.624;2023-03-01T07:47:52;7.60;99.90
68387;DHT22;55338;43.062;25.624;2023-03-01T07:50:18;7.60;99.90
68387;DHT22;55338;43.062;25.624;2023-03-01T07:52:48;7.60;99.90
68387;DHT22;55338;43.062;25.624;2023-03-01T07:55:15;7.60;99.90
68387;DHT22;55338;43.062;25.624;2023-03-01T07:57:41;7.60;99.90
68387;DHT22;55338;43.062;25.624;2023-03-01T08:00:09;7.70;99.90
68387;DHT22;55338;43.062;25.624;2023-03-01T08:02:36;7.70;99.90
68387;DHT22;55338;43.062;25.624;2023-03-01T08:05:01;7.80;99.90
68387;DHT22;55338;43.062;25.624;2023-03-01T08:07:27;7.80;99.90
68387;DHT22;55338;43.062;25.624;2023-03-01T08:09:55;7.80;99.90
68387;DHT22;55338;43.062;25.624;2023-03-01T08:12:21;7.90;99.90
68387;DHT22;55338;43.062;25.624;2023-03-01T08:14:47;7.90;99.90
68387;DHT22;55338;43.062;25.624;2023-03-01T08:17:16;7.90;99.90
68387;DHT22;55338;43.062;25.624;2023-03-01T08:19:42;8.00;99.90
68387;DHT22;55338;43.062;25.624;2023-03-01T08:22:08;8.00;99.90
68387;DHT22;55338;43.062;25.624;2023-03-01T08:24:34;7.90;99.90
68387;DHT22;55338;43.062;25.624;2023-03-01T08:27:00;8.00;99.90
68387;DHT22;55338;43.062;25.624;2023-03-01T08:29:28;7.90;99.90
68387;DHT22;55338;43.062;25.624;2023-03-01T08:31:55;7.90;99.90
68387;DHT22;55338;43.062;25.624;2023-03-01T08:34:27;7.80;99.90
68387;DHT22;55338;43.062;25.624;2023-03-01T08:36:53;7.90;99.90
68387;DHT22;55338;43.062;25.624;2023-03-01T08:39:20;7.90;99.90
68387;DHT22;55338;43.062;25.624;2023-03-01T08:41:51;7.90;99.90
68387;DHT22;55338;43.062;25.624;2023-03-01T08:44:17;7.80;99.90
68387;DHT22;55338;43.062;25.624;2023-03-01T08:46:44;7.90;99.90
68387;DHT22;55338;43.062;25.624;2023-03-01T08:49:19;7.90;99.90
68387;DHT22;55338;43.062;25.624;2023-03-01T08:51:46;7.90;99.90
68387;DHT22;55338;43.062;25.624;2023-03-01T08:54:19;7.90;99.90
68387;DHT22;55338;43.062;25.624;2023-03-01T08:56:50;8.00;99.90
68387;DHT22;55338;43.062;25.624;2023-03-01T08:59:17;8.00;99.90
68387;DHT22;55338;43.062;25.624;2023-03-01T09:01:46;8.00;99.90
68387;DHT22;55338;43.062;25.624;2023-03-01T09:04:15;8.00;99.90
68387;DHT22;55338;43.062;25.624;2023-03-01T09:06:44;8.00;99.90
68387;DHT22;55338;43.062;25.624;2023-03-01T09:09:16;7.90;99.90
68387;DHT22;55338;43.062;25.624;2023-03-01T09:11:46;7.90;99.90
68387;DHT22;55338;43.062;25.624;2023-03-01T09:14:43;7.90;99.90
68387;DHT22;55338;43.062;25.624;2023-03-01T09:17:09;7.90;99.90
68387;DHT22;55338;43.062;25.624;2023-03-01T09:19:36;7.90;99.90
68387;DHT22;55338;43.062;25.624;2023-03-01T09:22:03;7.90;99.90
68387;DHT22;55338;43.062;25.624;2023-03-01T09:24:30;7.90;99.90
68387;DHT22;55338;43.062;25.624;2023-03-01T09:26:56;7.90;99.90
68387;DHT22;55338;43.062;25.624;2023-03-01T09:29:22;7.90;99.90
68387;DHT22;55338;43.062;25.624;2023-03-01T09:31:48;8.00;99.90
68387;DHT22;55338;43.062;25.624;2023-03-01T09:34:14;8.00;99.90
68387;DHT22;55338;43.062;25.624;2023-03-01T09:36:48;8.00;99.90
68387;DHT22;55338;43.062;25.624;2023-03-01T09:39:14;8.10;99.90
68387;DHT22;55338;43.062;25.624;2023-03-01T09:47:05;8.30;99.90
68387;DHT22;55338;43.062;25.624;2023-03-01T09:49:38;8.40;99.90
68387;DHT22;55338;43.062;25.624;2023-03-01T09:54:55;8.50;99.90
68387;DHT22;55338;43.062;25.624;2023-03-01T09:57:30;8.60;99.90
68387;DHT22;55338;43.062;25.624;2023-03-01T10:02:51;8.60;99.90
68387;DHT22;55338;43.062;25.624;2023-03-01T10:05:49;8.70;99.90
68387;DHT22;55338;43.062;25.624;2023-03-01T10:08:29;8.80;99.90
68387;DHT22;55338;43.062;25.624;2023-03-01T10:10:57;8.80;99.90
68387;DHT22;55338;43.062;25.624;2023-03-01T10:13:28;8.80;99.90
68387;DHT22;55338;43.062;25.624;2023-03-01T10:15:58;8.80;99.90
68387;DHT22;55338;43.062;25.624;2023-03-01T10:18:29;8.90;99.90
68387;DHT22;55338;43.062;25.624;2023-03-01T10:21:02;8.90;99.90
68387;DHT22;55338;43.062;25.624;2023-03-01T10:23:31;8.90;99.90
68387;DHT22;55338;43.062;25.624;2023-03-01T10:31:44;8.80;99.90
68387;DHT22;55338;43.062;25.624;2023-03-01T10:34:32;8.70;99.90
68387;DHT22;55338;43.062;25.624;2023-03-01T10:39:54;8.60;99.90
68387;DHT22;55338;43.062;25.624;2023-03-01T10:42:27;8.50;99.90
68387;DHT22;55338;43.062;25.624;2023-03-01T10:44:54;8.50;99.90
68387;DHT22;55338;43.062;25.624;2023-03-01T10:47:21;8.60;99.90
68387;DHT22;55338;43.062;25.624;2023-03-01T10:52:24;8.50;99.90
68387;DHT22;55338;43.062;25.624;2023-03-01T10:55:08;8.40;99.90
68387;DHT22;55338;43.062;25.624;2023-03-01T10:57:40;8.40;99.90
68387;DHT22;55338;43.062;25.624;2023-03-01T11:00:20;8.30;99.90
68387;DHT22;55338;43.062;25.624;2023-03-01T11:03:01;8.30;99.90
68387;DHT22;55338;43.062;25.624;2023-03-01T11:05:27;8.40;99.90
68387;DHT22;55338;43.062;25.624;2023-03-01T11:07:59;8.30;99.90
68387;DHT22;55338;43.062;25.624;2023-03-01T11:10:26;8.30;99.90
68387;DHT22;55338;43.062;25.624;2023-03-01T11:12:53;8.30;99.90
68387;DHT22;55338;43.062;25.624;2023-03-01T11:15:27;8.40;99.90
68387;DHT22;55338;43.062;25.624;2023-03-01T11:17:54;8.40;99.90
68387;DHT22;55338;43.062;25.624;2023-03-01T11:20:37;8.30;99.90
68387;DHT22;55338;43.062;25.624;2023-03-01T11:23:12;8.30;99.90
68387;DHT22;55338;43.062;25.624;2023-03-01T11:25:58;8.40;99.90
68387;DHT22;55338;43.062;25.624;2023-03-01T11:28:25;8.30;99.90
68387;DHT22;55338;43.062;25.624;2023-03-01T11:31:03;8.30;99.90
68387;DHT22;55338;43.062;25.624;2023-03-01T11:38:53;8.30;99.90
68387;DHT22;55338;43.062;25.624;2023-03-01T11:41:23;8.30;99.90
68387;DHT22;55338;43.062;25.624;2023-03-01T11:55:24;8.40;99.90
68387;DHT22;55338;43.062;25.624;2023-03-01T12:20:18;8.10;99.90
68387;DHT22;55338;43.062;25.624;2023-03-01T12:37:02;8.20;99.90
68387;DHT22;55338;43.062;25.624;2023-03-01T12:39:47;8.20;99.90
68387;DHT22;55338;43.062;25.624;2023-03-01T12:45:40;8.30;99.90
68387;DHT22;55338;43.062;25.624;2023-03-01T12:48:28;8.40;99.90
68387;DHT22;55338;43.062;25.624;2023-03-01T12:51:01;8.30;99.90
68387;DHT22;55338;43.062;25.624;2023-03-01T12:53:32;8.30;99.90
68387;DHT22;55338;43.062;25.624;2023-03-01T12:56:08;8.30;99.90
68387;DHT22;55338;43.062;25.624;2023-03-01T13:11:53;8.20;99.90
68387;DHT22;55338;43.062;25.624;2023-03-01T13:16:53;8.20;99.90
68387;DHT22;55338;43.062;25.624;2023-03-01T13:19:27;8.20;99.90
68387;DHT22;55338;43.062;25.624;2023-03-01T13:21:58;8.30;99.90
68387;DHT22;55338;43.062;25.624;2023-03-01T13:24:41;8.20;99.90
68387;DHT22;55338;43.062;25.624;2023-03-01T13:29:57;8.30;99.90
68387;DHT22;55338;43.062;25.624;2023-03-01T13:32:36;8.30;99.90
68387;DHT22;55338;43.062;25.624;2023-03-01T13:37:45;8.30;99.90
68387;DHT22;55338;43.062;25.624;2023-03-01T13:42:48;8.30;99.90
68387;DHT22;55338;43.062;25.624;2023-03-01T13:47:57;8.30;99.90
68387;DHT22;55338;43.062;25.624;2023-03-01T13:50:38;8.30;99.90
68387;DHT22;55338;43.062;25.624;2023-03-01T13:53:06;8.30;99.90
68387;DHT22;55338;43.062;25.624;2023-03-01T13:55:38;8.30;99.90
68387;DHT22;55338;43.062;25.624;2023-03-01T13:58:29;8.30;99.90
68387;DHT22;55338;43.062;25.624;2023-03-01T14:01:02;8.40;99.90
68387;DHT22;55338;43.062;25.624;2023-03-01T14:03:29;8.40;99.90
68387;DHT22;55338;43.062;25.624;2023-03-01T14:06:16;8.40;99.90
68387;DHT22;55338;43.062;25.624;2023-03-01T14:08:47;8.40;99.90
68387;DHT22;55338;43.062;25.624;2023-03-01T14:11:40;8.40;99.90
68387;DHT22;55338;43.062;25.624;2023-03-01T14:19:45;8.30;99.90
68387;DHT22;55338;43.062;25.624;2023-03-01T14:22:25;8.30;99.90
68387;DHT22;55338;43.062;25.624;2023-03-01T14:24:59;8.30;99.90
68387;DHT22;55338;43.062;25.624;2023-03-01T14:27:36;8.30;99.90
68387;DHT22;55338;43.062;25.624;2023-03-01T14:32:39;8.30;99.90
68387;DHT22;55338;43.062;25.624;2023-03-01T14:35:27;8.30;99.90
68387;DHT22;55338;43.062;25.624;2023-03-01T14:37:53;8.30;99.90
68387;DHT22;55338;43.062;25.624;2023-03-01T14:40:22;8.30;99.90
68387;DHT22;55338;43.062;25.624;2023-03-01T14:42:50;8.30;99.90
68387;DHT22;55338;43.062;25.624;2023-03-01T14:45:16;8.30;99.90
68387;DHT22;55338;43.062;25.624;2023-03-01T14:47:44;8.30;99.90
68387;DHT22;55338;43.062;25.624;2023-03-01T14:50:31;8.30;99.90
68387;DHT22;55338;43.062;25.624;2023-03-01T14:53:03;8.30;99.90
68387;DHT22;55338;43.062;25.624;2023-03-01T14:55:33;8.20;99.90
68387;DHT22;55338;43.062;25.624;2023-03-01T14:58:09;8.20;99.90
68387;DHT22;55338;43.062;25.624;2023-03-01T15:00:37;8.20;99.90
68387;DHT22;55338;43.062;25.624;2023-03-01T15:03:11;8.20;99.90
68387;DHT22;55338;43.062;25.624;2023-03-01T15:05:39;8.20;99.90
68387;DHT22;55338;43.062;25.624;2023-03-01T15:08:18;8.20;99.90
68387;DHT22;55338;43.062;25.624;2023-03-01T15:11:03;8.20;99.90
68387;DHT22;55338;43.062;25.624;2023-03-01T15:13:32;8.20;99.90
68387;DHT22;55338;43.062;25.624;2023-03-01T15:16:10;8.20;99.90
68387;DHT22;55338;43.062;25.624;2023-03-01T15:18:38;8.20;99.90
68387;DHT22;55338;43.062;25.624;2023-03-01T15:21:33;8.10;99.90
68387;DHT22;55338;43.062;25.624;2023-03-01T15:26:42;8.10;99.90
68387;DHT22;55338;43.062;25.624;2023-03-01T15:29:20;8.10;99.90
68387;DHT22;55338;43.062;25.624;2023-03-01T15:32:04;8.10;99.90
68387;DHT22;55338;43.062;25.624;2023-03-01T15:34:37;8.10;99.90
68387;DHT22;55338;43.062;25.624;2023-03-01T15:40:25;8.10;99.90
68387;DHT22;55338;43.062;25.624;2023-03-01T15:43:03;8.00;99.90
68387;DHT22;55338;43.062;25.624;2023-03-01T15:45:31;8.00;99.90
68387;DHT22;55338;43.062;25.624;2023-03-01T15:48:25;8.00;99.90
68387;DHT22;55338;43.062;25.624;2023-03-01T15:50:57;8.00;99.90
68387;DHT22;55338;43.062;25.624;2023-03-01T15:53:24;8.00;99.90
68387;DHT22;55338;43.062;25.624;2023-03-01T15:55:49;8.00;99.90
68387;DHT22;55338;43.062;25.624;2023-03-01T15:58:17;8.00;99.90
68387;DHT22;55338;43.062;25.624;2023-03-01T16:00:44;7.90;99.90
68387;DHT22;55338;43.062;25.624;2023-03-01T16:03:11;8.00;99.90
68387;DHT22;55338;43.062;25.624;2023-03-01T16:05:37;8.00;99.90
68387;DHT22;55338;43.062;25.624;2023-03-01T16:08:04;8.00;99.90
68387;DHT22;55338;43.062;25.624;2023-03-01T16:10:32;7.90;99.90
68387;DHT22;55338;43.062;25.624;2023-03-01T16:12:58;7.90;99.90
68387;DHT22;55338;43.062;25.624;2023-03-01T16:15:29;7.90;99.90
68387;DHT22;55338;43.062;25.624;2023-03-01T16:17:55;7.90;99.90
68387;DHT22;55338;43.062;25.624;2023-03-01T16:20:24;7.90;99.90
68387;DHT22;55338;43.062;25.624;2023-03-01T16:22:50;7.90;99.90
68387;DHT22;55338;43.062;25.624;2023-03-01T16:25:17;7.80;99.90
68387;DHT22;55338;43.062;25.624;2023-03-01T16:27:45;7.80;99.90
68387;DHT22;55338;43.062;25.624;2023-03-01T16:30:13;7.80;99.90
68387;DHT22;55338;43.062;25.624;2023-03-01T16:32:40;7.70;99.90
68387;DHT22;55338;43.062;25.624;2023-03-01T16:35:07;7.70;99.90
68387;DHT22;55338;43.062;25.624;2023-03-01T16:37:33;7.70;99.90
68387;DHT22;55338;43.062;25.624;2023-03-01T16:40:00;7.70;99.90
68387;DHT22;55338;43.062;25.624;2023-03-01T16:42:26;7.70;99.90
68387;DHT22;55338;43.062;25.624;2023-03-01T16:44:57;7.70;99.90
68387;DHT22;55338;43.062;25.624;2023-03-01T16:47:23;7.70;99.90
68387;DHT22;55338;43.062;25.624;2023-03-01T16:49:52;7.70;99.90
68387;DHT22;55338;43.062;25.624;2023-03-01T16:52:19;7.70;99.90
68387;DHT22;55338;43.062;25.624;2023-03-01T16:54:45;7.70;99.90
68387;DHT22;55338;43.062;25.624;2023-03-01T16:57:11;7.70;99.90
68387;DHT22;55338;43.062;25.624;2023-03-01T16:59:37;7.80;99.90
68387;DHT22;55338;43.062;25.624;2023-03-01T17:02:04;7.80;99.90
68387;DHT22;55338;43.062;25.624;2023-03-01T17:04:31;7.80;99.90
68387;DHT22;55338;43.062;25.624;2023-03-01T17:06:57;7.80;99.90
68387;DHT22;55338;43.062;25.624;2023-03-01T17:09:22;7.80;99.90
68387;DHT22;55338;43.062;25.624;2023-03-01T17:11:48;7.80;99.90
68387;DHT22;55338;43.062;25.624;2023-03-01T17:14:15;7.70;99.90
68387;DHT22;55338;43.062;25.624;2023-03-01T17:16:42;7.60;99.90
68387;DHT22;55338;43.062;25.624;2023-03-01T17:19:09;7.60;99.90
68387;DHT22;55338;43.062;25.624;2023-03-01T17:21:35;7.60;99.90
68387;DHT22;55338;43.062;25.624;2023-03-01T17:24:01;7.60;99.90
68387;DHT22;55338;43.062;25.624;2023-03-01T17:26:27;7.60;99.90
68387;DHT22;55338;43.062;25.624;2023-03-01T17:28:56;7.60;99.90
68387;DHT22;55338;43.062;25.624;2023-03-01T17:31:23;7.60;99.90
68387;DHT22;55338;43.062;25.624;2023-03-01T17:33:49;7.60;99.90
68387;DHT22;55338;43.062;25.624;2023-03-01T17:36:17;7.70;99.90
68387;DHT22;55338;43.062;25.624;2023-03-01T17:38:42;7.70;99.90
68387;DHT22;55338;43.062;25.624;2023-03-01T17:41:10;7.60;99.90
68387;DHT22;55338;43.062;25.624;2023-03-01T17:43:37;7.60;99.90
68387;DHT22;55338;43.062;25.624;2023-03-01T17:46:02;7.60;99.90
68387;DHT22;55338;43.062;25.624;2023-03-01T17:48:28;7.60;99.90
68387;DHT22;55338;43.062;25.624;2023-03-01T17:50:54;7.60;99.90
68387;DHT22;55338;43.062;25.624;2023-03-01T17:53:20;7.60;99.90
68387;DHT22;55338;43.062;25.624;2023-03-01T17:55:47;7.60;99.90
68387;DHT22;55338;43.062;25.624;2023-03-01T17:58:18;7.60;99.90
68387;DHT22;55338;43.062;25.624;2023-03-01T18:00:48;7.60;99.90
68387;DHT22;55338;43.062;25.624;2023-03-01T18:03:15;7.60;99.90
68387;DHT22;55338;43.062;25.624;2023-03-01T18:05:41;7.60;99.90
68387;DHT22;55338;43.062;25.624;2023-03-01T18:08:07;7.60;99.90
68387;DHT22;55338;43.062;25.624;2023-03-01T18:10:33;7.60;99.90